createdAt,value
2023-01-08T00:01:37.809Z,9.38
2023-01-08T00:04:04.854Z,11.48
2023-01-08T00:06:31.529Z,14.48
2023-01-08T00:08:58.287Z,10.13
2023-01-08T00:11:25.399Z,12.80
2023-01-08T00:13:52.149Z,12.20
2023-01-08T00:16:20.431Z,11.40
2023-01-08T00:18:47.833Z,13.43
2023-01-08T00:21:15.147Z,13.55
2023-01-08T00:23:44.362Z,10.23
2023-01-08T00:26:13.978Z,13.23
2023-01-08T00:28:41.065Z,13.10
2023-01-08T00:31:10.471Z,15.95
2023-01-08T00:33:38.267Z,9.70
2023-01-08T00:36:10.066Z,12.02
2023-01-08T00:38:37.298Z,11.38
2023-01-08T00:41:04.783Z,11.48
2023-01-08T00:43:31.841Z,12.80
2023-01-08T00:45:58.583Z,12.32
2023-01-08T00:48:25.310Z,10.85
2023-01-08T00:50:53.595Z,11.57
2023-01-08T00:53:23.297Z,14.02
2023-01-08T00:55:53.458Z,13.20
2023-01-08T00:58:20.122Z,12.15
2023-01-08T01:00:46.808Z,13.98
2023-01-08T01:03:13.496Z,13.60
2023-01-08T01:05:42.437Z,12.00
2023-01-08T01:08:09.215Z,15.30
2023-01-08T01:10:39.091Z,15.18
2023-01-08T01:13:06.053Z,12.45
2023-01-08T01:15:35.313Z,13.18
2023-01-08T01:18:01.949Z,12.52
2023-01-08T01:20:28.655Z,13.38
2023-01-08T01:22:57.807Z,11.38
2023-01-08T01:25:26.723Z,12.23
2023-01-08T01:27:53.411Z,10.70
2023-01-08T01:30:20.072Z,9.73
2023-01-08T01:32:46.731Z,11.52
2023-01-08T01:35:15.780Z,12.68
2023-01-08T01:37:42.417Z,9.80
2023-01-08T01:40:09.573Z,10.15
2023-01-08T01:42:43.871Z,9.60
2023-01-08T01:45:17.996Z,10.00
2023-01-08T01:48:17.332Z,11.98
2023-01-08T01:50:48.595Z,11.95
2023-01-08T01:53:19.008Z,9.90
2023-01-08T01:55:46.593Z,11.10
2023-01-08T01:58:19.407Z,9.48
2023-01-08T02:00:47.070Z,10.23
2023-01-08T02:03:15.324Z,35.45
2023-01-08T02:06:04.700Z,9.48
2023-01-08T02:08:53.267Z,9.32
2023-01-08T02:11:38.000Z,12.13
2023-01-08T02:14:22.834Z,8.38
2023-01-08T02:17:11.910Z,11.73
2023-01-08T02:19:44.930Z,8.63
2023-01-08T02:22:20.903Z,7.97
2023-01-08T02:25:06.048Z,8.18
2023-01-08T02:27:35.435Z,7.90
2023-01-08T02:30:04.574Z,8.82
2023-01-08T02:32:42.067Z,9.20
2023-01-08T02:35:10.814Z,9.07
2023-01-08T02:37:38.187Z,9.02
2023-01-08T02:40:49.057Z,8.75
2023-01-08T02:43:41.584Z,8.43
2023-01-08T02:46:11.408Z,9.30
2023-01-08T02:48:43.789Z,7.75
2023-01-08T02:51:30.980Z,7.95
2023-01-08T02:54:03.895Z,9.85
2023-01-08T02:56:35.650Z,8.80
2023-01-08T02:59:04.972Z,5.63
2023-01-08T03:01:34.981Z,6.65
2023-01-08T03:04:10.824Z,6.68
2023-01-08T03:06:38.248Z,6.45
2023-01-08T03:09:06.172Z,7.10
2023-01-08T03:12:00.635Z,7.35
2023-01-08T03:17:21.676Z,5.93
2023-01-08T03:19:59.391Z,8.52
2023-01-08T03:22:30.387Z,6.28
2023-01-08T03:24:59.501Z,6.45
2023-01-08T03:27:30.934Z,7.13
2023-01-08T03:30:02.775Z,5.63
2023-01-08T03:32:31.042Z,7.18
2023-01-08T03:34:59.520Z,7.70
2023-01-08T03:37:35.126Z,4.85
2023-01-08T03:40:06.476Z,5.43
2023-01-08T03:42:33.522Z,6.30
2023-01-08T03:45:00.948Z,5.80
2023-01-08T03:47:35.198Z,4.97
2023-01-08T03:50:05.421Z,5.85
2023-01-08T03:52:33.020Z,6.70
2023-01-08T03:54:59.690Z,5.45
2023-01-08T03:57:29.181Z,6.00
2023-01-08T03:59:55.802Z,5.38
2023-01-08T04:02:22.563Z,5.90
2023-01-08T04:04:49.321Z,7.03
2023-01-08T04:07:19.105Z,6.30
2023-01-08T04:09:45.783Z,6.05
2023-01-08T04:12:12.847Z,5.53
2023-01-08T04:14:39.519Z,6.97
2023-01-08T04:17:06.185Z,8.13
2023-01-08T04:19:32.847Z,7.20
2023-01-08T04:21:59.474Z,5.68
2023-01-08T04:24:26.154Z,7.60
2023-01-08T04:26:52.804Z,9.10
2023-01-08T04:29:19.561Z,5.18
2023-01-08T04:31:46.243Z,8.43
2023-01-08T04:34:15.433Z,6.22
2023-01-08T04:36:42.099Z,4.90
2023-01-08T04:39:12.621Z,6.80
2023-01-08T04:41:39.269Z,5.28
2023-01-08T04:44:06.053Z,5.40
2023-01-08T04:46:35.063Z,6.95
2023-01-08T04:49:01.834Z,6.68
2023-01-08T04:51:30.887Z,5.57
2023-01-08T04:53:57.775Z,7.13
2023-01-08T04:56:24.442Z,9.38
2023-01-08T04:58:52.022Z,8.77
2023-01-08T05:01:23.655Z,8.48
2023-01-08T05:04:00.334Z,6.80
2023-01-08T05:06:28.954Z,10.60
2023-01-08T05:08:55.694Z,10.13
2023-01-08T05:11:22.879Z,7.65
2023-01-08T05:13:51.065Z,9.35
2023-01-08T05:16:18.084Z,12.90
2023-01-08T05:18:48.127Z,9.40
2023-01-08T05:21:15.142Z,10.07
2023-01-08T05:23:47.693Z,8.90
2023-01-08T05:26:15.284Z,10.93
2023-01-08T05:28:42.021Z,10.68
2023-01-08T05:31:09.220Z,9.18
2023-01-08T05:33:35.921Z,11.45
2023-01-08T05:36:07.368Z,14.07
2023-01-08T05:38:34.275Z,11.48
2023-01-08T05:41:03.234Z,11.88
2023-01-08T05:43:32.269Z,11.32
2023-01-08T05:46:03.167Z,11.02
2023-01-08T05:48:31.831Z,10.70
2023-01-08T05:50:58.443Z,12.02
2023-01-08T05:53:27.450Z,11.27
2023-01-08T05:55:59.533Z,10.07
2023-01-08T05:58:27.127Z,11.18
2023-01-08T06:00:53.833Z,13.35
2023-01-08T06:03:21.914Z,13.23
2023-01-08T06:05:48.633Z,12.27
2023-01-08T06:08:16.173Z,15.30
2023-01-08T06:10:42.791Z,12.77
2023-01-08T06:13:10.215Z,11.00
2023-01-08T06:15:41.003Z,11.52
2023-01-08T06:18:07.722Z,11.18
2023-01-08T06:20:34.576Z,10.38
2023-01-08T06:23:01.241Z,9.23
2023-01-08T06:25:30.613Z,9.45
2023-01-08T06:27:57.257Z,11.73
2023-01-08T06:30:26.439Z,12.10
2023-01-08T06:32:59.747Z,11.40
2023-01-08T06:35:27.358Z,10.73
2023-01-08T06:37:57.165Z,10.95
2023-01-08T06:40:24.800Z,11.38
2023-01-08T06:42:53.917Z,12.43
2023-01-08T06:45:20.869Z,10.75
2023-01-08T06:47:49.988Z,11.88
2023-01-08T06:50:19.151Z,11.52
2023-01-08T06:52:54.979Z,9.82
2023-01-08T06:55:23.307Z,9.65
2023-01-08T06:57:55.056Z,9.65
2023-01-08T07:00:26.039Z,8.93
2023-01-08T07:02:53.919Z,9.70
2023-01-08T07:05:23.499Z,9.65
2023-01-08T07:07:50.292Z,9.95
2023-01-08T07:10:19.690Z,11.00
2023-01-08T07:12:46.581Z,9.77
2023-01-08T07:15:13.565Z,10.70
2023-01-08T07:17:40.246Z,7.97
2023-01-08T07:20:07.435Z,11.38
2023-01-08T07:22:36.921Z,10.65
2023-01-08T07:25:05.152Z,9.43
2023-01-08T07:27:33.984Z,10.25
2023-01-08T07:30:03.130Z,9.45
2023-01-08T07:32:29.786Z,10.07
2023-01-08T07:34:59.194Z,9.10
2023-01-08T07:37:26.497Z,10.57
2023-01-08T07:39:55.804Z,7.70
2023-01-08T07:42:22.477Z,10.27
2023-01-08T07:44:51.279Z,9.88
2023-01-08T07:47:20.381Z,8.25
2023-01-08T07:49:47.030Z,10.05
2023-01-08T07:52:15.868Z,9.05
2023-01-08T07:54:47.301Z,6.75
2023-01-08T07:57:16.309Z,10.75
2023-01-08T07:59:42.935Z,8.98
2023-01-08T08:02:11.323Z,6.80
2023-01-08T08:04:38.274Z,6.40
2023-01-08T08:07:05.041Z,10.10
2023-01-08T08:09:34.269Z,8.55
2023-01-08T08:12:00.913Z,8.23
2023-01-08T08:14:27.528Z,8.82
2023-01-08T08:16:54.188Z,5.93
2023-01-08T08:19:20.806Z,7.13
2023-01-08T08:21:49.581Z,7.80
2023-01-08T08:24:16.297Z,6.05
2023-01-08T08:26:45.251Z,8.38
2023-01-08T08:29:11.917Z,7.15
2023-01-08T08:31:40.926Z,6.93
2023-01-08T08:34:07.981Z,6.15
2023-01-08T08:36:34.860Z,6.50
2023-01-08T08:39:04.227Z,8.32
2023-01-08T08:41:30.983Z,7.22
2023-01-08T08:43:57.738Z,8.88
2023-01-08T08:46:25.622Z,9.50
2023-01-08T08:48:52.357Z,8.93
2023-01-08T08:51:19.088Z,6.50
2023-01-08T08:53:45.899Z,7.97
2023-01-08T08:56:15.215Z,7.40
2023-01-08T08:58:45.289Z,7.10
2023-01-08T09:01:12.479Z,7.30
2023-01-08T09:03:39.187Z,8.95
2023-01-08T09:06:12.670Z,8.50
2023-01-08T09:08:39.640Z,9.52
2023-01-08T09:11:06.326Z,8.25
2023-01-08T09:13:35.116Z,9.88
2023-01-08T09:16:05.369Z,7.65
2023-01-08T09:18:32.072Z,9.00
2023-01-08T09:20:58.701Z,7.30
2023-01-08T09:23:25.365Z,9.63
2023-01-08T09:26:04.810Z,10.93
2023-01-08T09:28:33.962Z,8.00
2023-01-08T09:31:03.899Z,7.20
2023-01-08T09:33:31.207Z,6.05
2023-01-08T09:35:57.890Z,6.25
2023-01-08T09:38:29.642Z,9.35
2023-01-08T09:41:12.620Z,5.18
2023-01-08T09:43:44.020Z,5.47
2023-01-08T09:46:12.726Z,7.93
2023-01-08T09:48:41.311Z,5.72
2023-01-08T09:51:17.349Z,6.57
2023-01-08T09:53:44.843Z,5.60
2023-01-08T09:56:18.451Z,6.28
2023-01-08T09:58:53.813Z,8.43
2023-01-08T10:01:23.844Z,5.60
2023-01-08T10:04:04.374Z,5.88
2023-01-08T10:06:31.329Z,9.10
2023-01-08T10:08:58.699Z,4.75
2023-01-08T10:11:31.057Z,7.93
2023-01-08T10:13:57.967Z,7.35
2023-01-08T10:16:36.545Z,7.72
2023-01-08T10:19:04.562Z,5.65
2023-01-08T10:21:38.096Z,6.07
2023-01-08T10:24:05.004Z,9.77
2023-01-08T10:26:36.612Z,6.68
2023-01-08T10:29:16.839Z,6.50
2023-01-08T10:31:47.319Z,4.68
2023-01-08T10:34:30.588Z,6.47
2023-01-08T10:37:01.384Z,6.47
2023-01-08T10:39:31.060Z,6.75
2023-01-08T10:42:08.388Z,5.80
2023-01-08T10:44:37.700Z,5.72
2023-01-08T10:47:05.247Z,4.47
2023-01-08T10:49:43.839Z,5.45
2023-01-08T10:52:32.729Z,3.58
2023-01-08T10:55:39.554Z,4.75
2023-01-08T10:58:14.224Z,5.03
2023-01-08T11:00:41.374Z,5.65
2023-01-08T11:03:20.907Z,4.68
2023-01-08T11:05:47.777Z,5.57
2023-01-08T11:08:23.009Z,6.18
2023-01-08T11:11:01.250Z,5.72
2023-01-08T11:13:29.436Z,6.55
2023-01-08T11:16:13.090Z,4.13
2023-01-08T11:18:49.562Z,3.60
2023-01-08T11:21:30.748Z,4.25
2023-01-08T11:24:19.820Z,4.05
2023-01-08T11:26:53.276Z,2.20
2023-01-08T11:29:29.051Z,3.25
2023-01-08T11:32:29.245Z,2.67
2023-01-08T11:35:22.088Z,6.35
2023-01-08T11:38:00.030Z,5.30
2023-01-08T11:40:40.407Z,2.85
2023-01-08T11:43:10.189Z,4.82
2023-01-08T11:46:05.563Z,2.17
2023-01-08T11:49:16.865Z,3.85
2023-01-08T11:52:04.210Z,4.22
2023-01-08T11:54:34.082Z,5.13
2023-01-08T11:57:12.804Z,3.65
2023-01-08T12:00:02.598Z,4.55
2023-01-08T12:02:44.355Z,5.22
2023-01-08T12:05:27.735Z,7.25
2023-01-08T12:08:00.152Z,3.47
2023-01-08T12:10:34.038Z,3.33
2023-01-08T12:16:05.397Z,5.13
2023-01-08T12:18:59.890Z,4.95
2023-01-08T12:24:48.728Z,2.60
2023-01-08T12:27:48.666Z,4.72
2023-01-08T12:30:22.857Z,2.80
2023-01-08T12:33:00.620Z,3.33
2023-01-08T12:35:48.508Z,2.97
2023-01-08T12:38:30.984Z,4.03
2023-01-08T12:41:07.209Z,5.20
2023-01-08T12:43:46.510Z,4.47
2023-01-08T12:46:16.966Z,3.33
2023-01-08T12:48:46.584Z,4.20
2023-01-08T12:51:26.494Z,3.50
2023-01-08T12:54:03.422Z,4.93
2023-01-08T12:57:07.314Z,3.17
2023-01-08T12:59:48.411Z,2.00
2023-01-08T13:02:36.300Z,3.92
2023-01-08T13:05:20.519Z,2.85
2023-01-08T13:10:40.861Z,3.90
2023-01-08T13:13:25.429Z,3.25
2023-01-08T13:15:52.165Z,2.63
2023-01-08T13:18:21.496Z,3.83
2023-01-08T13:20:59.474Z,4.40
2023-01-08T13:23:28.593Z,3.60
2023-01-08T13:26:04.379Z,2.92
2023-01-08T13:28:39.008Z,3.47
2023-01-08T13:31:27.142Z,4.63
2023-01-08T13:33:55.203Z,5.10
2023-01-08T13:36:27.900Z,3.72
2023-01-08T13:39:12.416Z,3.05
2023-01-08T13:41:56.565Z,3.50
2023-01-08T13:47:04.827Z,6.07
2023-01-08T13:49:49.936Z,2.78
2023-01-08T13:52:47.400Z,2.28
2023-01-08T13:55:34.825Z,4.32
2023-01-08T13:58:19.384Z,3.10
2023-01-08T14:00:49.047Z,2.90
2023-01-08T14:03:29.150Z,1.60
2023-01-08T14:06:19.572Z,2.40
2023-01-08T14:08:58.355Z,2.22
2023-01-08T14:11:41.405Z,5.18
2023-01-08T14:14:17.348Z,2.25
2023-01-08T14:16:45.085Z,2.65
2023-01-08T14:19:17.328Z,2.50
2023-01-08T14:22:02.637Z,3.00
2023-01-08T14:24:31.596Z,2.08
2023-01-08T14:27:00.196Z,4.05
2023-01-08T14:29:29.879Z,2.42
2023-01-08T14:32:00.257Z,2.20
2023-01-08T14:34:30.033Z,3.00
2023-01-08T14:36:59.387Z,3.15
2023-01-08T14:39:39.019Z,4.15
2023-01-08T14:42:36.094Z,2.50
2023-01-08T14:45:07.113Z,1.70
2023-01-08T14:47:45.664Z,4.72
2023-01-08T14:50:22.646Z,2.83
2023-01-08T14:52:50.950Z,3.20
2023-01-08T14:55:20.113Z,1.50
2023-01-08T14:57:49.611Z,2.25
2023-01-08T15:00:30.446Z,2.30
2023-01-08T15:02:57.606Z,1.70
2023-01-08T15:05:30.438Z,2.50
2023-01-08T15:08:01.694Z,1.48
2023-01-08T15:10:36.116Z,3.35
2023-01-08T15:13:06.549Z,1.90
2023-01-08T15:15:37.969Z,1.63
2023-01-08T15:18:07.374Z,1.33
2023-01-08T15:20:38.441Z,2.53
2023-01-08T15:23:05.523Z,2.88
2023-01-08T15:25:32.281Z,4.00
2023-01-08T15:28:04.341Z,2.97
2023-01-08T15:30:37.055Z,1.60
2023-01-08T15:33:21.305Z,4.63
2023-01-08T15:35:48.726Z,2.83
2023-01-08T15:38:20.720Z,3.00
2023-01-08T15:40:48.362Z,1.73
2023-01-08T15:43:18.445Z,5.00
2023-01-08T15:45:47.861Z,2.90
2023-01-08T15:48:15.004Z,3.42
2023-01-08T15:50:44.089Z,2.22
2023-01-08T15:53:22.210Z,2.28
2023-01-08T15:55:52.448Z,6.10
2023-01-08T15:58:19.518Z,1.70
2023-01-08T16:00:48.500Z,4.55
2023-01-08T16:03:15.620Z,3.65
2023-01-08T16:05:42.351Z,2.05
2023-01-08T16:08:12.677Z,4.18
2023-01-08T16:10:39.391Z,6.43
2023-01-08T16:13:06.083Z,4.13
2023-01-08T16:15:32.816Z,4.68
2023-01-08T16:17:59.581Z,4.72
2023-01-08T16:20:29.101Z,3.65
2023-01-08T16:22:57.118Z,5.20
2023-01-08T16:25:24.701Z,6.43
2023-01-08T16:27:53.978Z,4.10
2023-01-08T16:30:20.922Z,9.50
2023-01-08T16:32:54.875Z,4.65
2023-01-08T16:35:21.988Z,4.55
2023-01-08T16:37:48.730Z,4.65
2023-01-08T16:40:15.645Z,4.18
2023-01-08T16:42:42.319Z,4.43
2023-01-08T16:45:09.498Z,4.57
2023-01-08T16:47:39.377Z,4.38
2023-01-08T16:50:10.543Z,5.97
2023-01-08T16:52:38.736Z,5.60
2023-01-08T16:55:06.542Z,5.82
2023-01-08T16:57:33.180Z,4.72
2023-01-08T16:59:59.877Z,5.28
2023-01-08T17:02:27.337Z,6.30
2023-01-08T17:04:53.999Z,4.53
2023-01-08T17:07:20.717Z,7.30
2023-01-08T17:09:49.585Z,5.10
2023-01-08T17:12:22.245Z,7.38
2023-01-08T17:14:50.641Z,4.30
2023-01-08T17:17:17.826Z,7.93
2023-01-08T17:19:44.484Z,14.23
2023-01-08T17:22:11.108Z,12.55
2023-01-08T17:24:37.928Z,14.02
2023-01-08T17:27:04.657Z,15.55
2023-01-08T17:29:36.272Z,15.13
2023-01-08T17:32:05.424Z,12.05
2023-01-08T17:34:34.355Z,9.82
2023-01-08T17:37:01.103Z,9.23
2023-01-08T17:39:30.216Z,11.13
2023-01-08T17:42:15.530Z,10.55
2023-01-08T17:44:42.241Z,6.90
2023-01-08T17:47:09.062Z,8.18
2023-01-08T17:49:35.737Z,7.95
2023-01-08T17:52:02.550Z,8.95
2023-01-08T17:54:29.325Z,7.07
2023-01-08T17:56:55.999Z,7.28
2023-01-08T17:59:24.989Z,7.20
2023-01-08T18:01:52.905Z,10.57
2023-01-08T18:04:19.691Z,9.07
2023-01-08T18:06:49.148Z,9.85
2023-01-08T18:09:16.002Z,7.60
2023-01-08T18:11:42.872Z,8.40
2023-01-08T18:14:11.955Z,5.53
2023-01-08T18:16:45.276Z,7.90
2023-01-08T18:19:15.684Z,6.32
2023-01-08T18:21:43.705Z,10.45
2023-01-08T18:24:10.948Z,7.95
2023-01-08T18:26:40.331Z,6.20
2023-01-08T18:29:10.109Z,10.20
2023-01-08T18:31:36.784Z,12.05
2023-01-08T18:34:05.794Z,10.45
2023-01-08T18:36:32.931Z,10.35
2023-01-08T18:39:00.180Z,10.15
2023-01-08T18:41:45.458Z,7.78
2023-01-08T18:44:12.187Z,7.70
2023-01-08T18:46:38.895Z,11.52
2023-01-08T18:49:06.451Z,10.48
2023-01-08T18:51:33.241Z,8.70
2023-01-08T18:54:03.016Z,8.95
2023-01-08T18:56:34.973Z,11.68
2023-01-08T18:59:03.354Z,8.88
2023-01-08T19:01:36.827Z,9.27
2023-01-08T19:04:03.897Z,10.25
2023-01-08T19:06:31.117Z,9.40
2023-01-08T19:08:59.337Z,12.18
2023-01-08T19:11:26.992Z,10.40
2023-01-08T19:13:55.738Z,8.73
2023-01-08T19:16:23.351Z,13.18
2023-01-08T19:18:55.876Z,13.40
2023-01-08T19:21:27.002Z,18.73
2023-01-08T19:23:54.084Z,23.58
2023-01-08T19:26:22.992Z,31.08
2023-01-08T19:28:51.962Z,28.85
2023-01-08T19:31:21.291Z,33.00
2023-01-08T19:33:48.059Z,30.98
2023-01-08T19:36:16.456Z,30.40
2023-01-08T19:38:47.079Z,24.15
2023-01-08T19:41:35.176Z,17.63
2023-01-08T19:44:02.659Z,15.93
2023-01-08T19:46:30.202Z,15.68
2023-01-08T19:48:58.601Z,19.92
2023-01-08T19:51:25.975Z,21.67
2023-01-08T19:53:53.595Z,23.75
2023-01-08T19:56:20.487Z,26.52
2023-01-08T19:58:47.252Z,23.42
2023-01-08T20:01:24.673Z,24.75
2023-01-08T20:03:52.531Z,23.45
2023-01-08T20:06:21.887Z,25.58
2023-01-08T20:08:56.423Z,25.02
2023-01-08T20:11:23.552Z,27.50
2023-01-08T20:13:52.958Z,24.98
2023-01-08T20:16:21.669Z,22.88
2023-01-08T20:18:49.097Z,24.30
2023-01-08T20:21:18.580Z,26.98
2023-01-08T20:23:47.777Z,23.48
2023-01-08T20:26:16.980Z,22.67
2023-01-08T20:28:50.362Z,20.90
2023-01-08T20:31:20.687Z,16.45
2023-01-08T20:33:50.085Z,22.10
2023-01-08T20:36:20.972Z,15.80
2023-01-08T20:38:53.708Z,11.52
2023-01-08T20:41:24.211Z,11.95
2023-01-08T20:43:51.303Z,8.77
2023-01-08T20:46:18.139Z,10.32
2023-01-08T20:48:48.255Z,9.48
2023-01-08T20:51:16.047Z,9.77
2023-01-08T20:53:45.238Z,8.02
2023-01-08T20:56:14.245Z,8.35
2023-01-08T20:58:43.817Z,8.93
2023-01-08T21:01:19.648Z,8.07
2023-01-08T21:03:47.418Z,8.07
2023-01-08T21:06:17.221Z,7.40
2023-01-08T21:08:47.886Z,8.95
2023-01-08T21:11:17.414Z,9.82
2023-01-08T21:13:44.514Z,7.78
2023-01-08T21:16:17.303Z,8.80
2023-01-08T21:18:47.975Z,7.43
2023-01-08T21:21:28.617Z,7.90
2023-01-08T21:23:56.224Z,7.72
2023-01-08T21:26:26.146Z,9.60
2023-01-08T21:28:52.960Z,8.32
2023-01-08T21:31:22.101Z,8.18
2023-01-08T21:33:49.488Z,9.32
2023-01-08T21:36:21.992Z,10.45
2023-01-08T21:38:49.213Z,10.88
2023-01-08T21:41:39.275Z,9.95
2023-01-08T21:44:29.168Z,8.52
2023-01-08T21:46:57.344Z,9.88
2023-01-08T21:49:26.946Z,8.52
2023-01-08T21:52:13.521Z,10.35
2023-01-08T21:54:42.615Z,10.25
2023-01-08T21:57:09.681Z,10.38
2023-01-08T21:59:36.587Z,8.05
2023-01-08T22:02:07.413Z,10.63
2023-01-08T22:04:37.191Z,10.95
2023-01-08T22:07:03.942Z,11.20
2023-01-08T22:09:32.845Z,10.07
2023-01-08T22:11:59.556Z,11.98
2023-01-08T22:14:26.228Z,11.75
2023-01-08T22:16:55.105Z,9.27
2023-01-08T22:19:21.823Z,17.02
2023-01-08T22:21:48.508Z,11.70
2023-01-08T22:24:15.216Z,12.07
2023-01-08T22:26:41.836Z,10.82
2023-01-08T22:29:10.922Z,11.32
2023-01-08T22:31:37.650Z,10.88
2023-01-08T22:34:04.611Z,10.35
2023-01-08T22:36:31.261Z,11.43
2023-01-08T22:38:58.118Z,10.25
2023-01-08T22:41:27.527Z,8.05
2023-01-08T22:44:00.832Z,7.90
2023-01-08T22:46:30.188Z,8.98
2023-01-08T22:48:56.844Z,10.52
2023-01-08T22:51:27.579Z,8.38
2023-01-08T22:53:58.325Z,9.60
2023-01-08T22:56:25.686Z,9.60
2023-01-08T22:58:55.865Z,8.80
2023-01-08T23:01:25.464Z,7.68
2023-01-08T23:03:56.406Z,8.18
2023-01-08T23:06:24.539Z,6.45
2023-01-08T23:08:53.399Z,5.05
2023-01-08T23:11:23.320Z,5.13
2023-01-08T23:13:51.208Z,6.28
2023-01-08T23:16:19.115Z,5.55
2023-01-08T23:18:45.823Z,6.13
2023-01-08T23:21:18.563Z,5.07
2023-01-08T23:23:45.862Z,4.22
2023-01-08T23:26:22.497Z,3.47
2023-01-08T23:28:50.588Z,5.07
2023-01-08T23:31:20.018Z,7.05
2023-01-08T23:33:46.806Z,6.15
2023-01-08T23:36:18.915Z,8.52
2023-01-08T23:38:46.347Z,5.45
2023-01-08T23:41:15.778Z,5.38
2023-01-08T23:43:43.380Z,3.58
2023-01-08T23:46:13.271Z,4.45
2023-01-08T23:48:42.184Z,4.60
2023-01-08T23:51:11.515Z,3.90
2023-01-08T23:53:38.288Z,3.47
2023-01-08T23:56:05.314Z,4.15
2023-01-08T23:58:31.974Z,3.92
